createdAt,value
2024-01-14T10:50:45.368Z,3.11
2024-01-14T10:53:24.739Z,3.13
2024-01-14T10:56:02.151Z,3.14
2024-01-14T10:58:31.643Z,3.17
2024-01-14T11:01:00.990Z,3.20
2024-01-14T11:03:28.848Z,3.22
2024-01-14T11:05:56.000Z,3.23
2024-01-14T11:08:22.757Z,3.28
2024-01-14T11:10:51.435Z,3.31
2024-01-14T11:13:24.197Z,3.34
2024-01-14T11:15:56.651Z,3.36
2024-01-14T11:18:55.097Z,3.36
2024-01-14T11:21:56.883Z,3.36
2024-01-14T11:24:30.673Z,3.36
2024-01-14T11:26:58.190Z,3.34
2024-01-14T11:29:34.982Z,3.36
2024-01-14T11:32:04.374Z,3.34
2024-01-14T11:34:50.319Z,3.36
2024-01-14T11:37:49.426Z,3.40
2024-01-14T11:40:29.003Z,3.41
2024-01-14T11:43:02.485Z,3.43
2024-01-14T11:45:29.222Z,3.41
2024-01-14T11:47:57.304Z,3.45
2024-01-14T11:50:28.274Z,3.48
2024-01-14T11:52:57.056Z,3.44
2024-01-14T11:55:34.066Z,3.48
2024-01-14T11:58:13.176Z,3.49
2024-01-14T12:00:41.253Z,3.52
2024-01-14T12:03:10.232Z,3.53
2024-01-14T12:05:40.388Z,3.55
2024-01-14T12:08:08.228Z,3.50
2024-01-14T12:10:36.559Z,3.51
2024-01-14T12:13:05.033Z,3.47
2024-01-14T12:15:36.679Z,3.48
2024-01-14T12:18:05.816Z,3.51
2024-01-14T12:20:33.010Z,3.50
2024-01-14T12:23:02.853Z,3.48
2024-01-14T12:25:31.207Z,3.52
2024-01-14T12:27:58.657Z,3.51
2024-01-14T12:30:31.810Z,3.57
2024-01-14T12:32:59.879Z,3.58
2024-01-14T12:35:39.645Z,3.63
2024-01-14T12:38:09.676Z,3.63
2024-01-14T12:40:37.778Z,3.66
2024-01-14T12:43:06.834Z,3.67
2024-01-14T12:45:34.173Z,3.67
2024-01-14T12:48:02.739Z,3.67
2024-01-14T12:50:31.174Z,3.72
2024-01-14T12:52:59.940Z,3.72
2024-01-14T12:55:30.617Z,3.71
2024-01-14T12:58:02.170Z,3.71
2024-01-14T13:00:30.700Z,3.71
2024-01-14T13:02:58.111Z,3.71
2024-01-14T13:05:25.181Z,3.69
2024-01-14T13:07:52.952Z,3.66
2024-01-14T13:10:20.388Z,3.65
2024-01-14T13:12:47.251Z,3.66
2024-01-14T13:15:14.661Z,3.64
2024-01-14T13:17:42.436Z,3.65
2024-01-14T13:20:10.270Z,3.64
2024-01-14T13:22:37.381Z,3.64
2024-01-14T13:25:07.829Z,3.66
2024-01-14T13:27:34.977Z,3.64
2024-01-14T13:30:05.713Z,3.64
2024-01-14T13:32:38.664Z,3.62
2024-01-14T13:35:07.128Z,3.62
2024-01-14T13:37:37.398Z,3.64
2024-01-14T13:40:05.662Z,3.64
2024-01-14T13:42:33.018Z,3.65
2024-01-14T13:44:59.582Z,3.59
2024-01-14T13:47:26.687Z,3.59
2024-01-14T13:49:53.677Z,3.60
2024-01-14T13:52:20.379Z,3.58
2024-01-14T13:54:47.041Z,3.60
2024-01-14T13:57:13.758Z,3.62
2024-01-14T13:59:40.434Z,3.60
2024-01-14T14:02:07.486Z,3.62
2024-01-14T14:04:34.499Z,3.62
2024-01-14T14:07:01.292Z,3.59
2024-01-14T14:09:27.995Z,3.62
2024-01-14T14:11:54.746Z,3.60
2024-01-14T14:14:21.341Z,3.60
2024-01-14T14:16:47.926Z,3.62
2024-01-14T14:19:14.896Z,3.60
2024-01-14T14:21:54.386Z,3.59
2024-01-14T14:24:28.143Z,3.59
2024-01-14T14:26:54.917Z,3.57
2024-01-14T14:29:24.125Z,3.57
2024-01-14T14:31:52.548Z,3.59
2024-01-14T14:34:20.383Z,3.59
2024-01-14T14:36:48.212Z,3.58
2024-01-14T14:39:15.236Z,3.57
2024-01-14T14:41:42.131Z,3.58
2024-01-14T14:44:10.962Z,3.58
2024-01-14T14:46:38.456Z,3.58
2024-01-14T14:49:05.680Z,3.60
2024-01-14T14:51:38.346Z,3.60
2024-01-14T14:54:07.869Z,3.56
2024-01-14T14:56:34.594Z,3.53
2024-01-14T14:59:01.308Z,3.53
2024-01-14T15:01:36.809Z,3.53
2024-01-14T15:04:08.993Z,3.54
2024-01-14T15:06:35.963Z,3.56
2024-01-14T15:09:02.694Z,3.56
2024-01-14T15:11:31.740Z,3.54
2024-01-14T15:14:02.122Z,3.54
2024-01-14T15:16:28.900Z,3.53
2024-01-14T15:18:55.735Z,3.52
2024-01-14T15:21:22.556Z,3.47
2024-01-14T15:23:49.316Z,3.47
2024-01-14T15:26:16.364Z,3.47
2024-01-14T15:28:42.987Z,3.49
2024-01-14T15:31:10.311Z,3.45
2024-01-14T15:33:37.918Z,3.43
2024-01-14T15:36:06.089Z,3.42
2024-01-14T15:38:33.677Z,3.38
2024-01-14T15:41:06.318Z,3.36
2024-01-14T15:43:35.358Z,3.35
2024-01-14T15:46:02.386Z,3.34
2024-01-14T15:48:30.155Z,3.32
2024-01-14T15:51:03.824Z,3.31
2024-01-14T15:53:32.284Z,3.28
2024-01-14T15:55:58.833Z,3.27
2024-01-14T15:58:25.472Z,3.23
2024-01-14T16:01:03.466Z,3.25
2024-01-14T16:03:40.501Z,3.22
2024-01-14T16:06:09.072Z,3.21
2024-01-14T16:08:36.018Z,3.21
2024-01-14T16:11:06.476Z,3.18
2024-01-14T16:13:35.293Z,3.18
2024-01-14T16:16:02.698Z,3.17
2024-01-14T16:18:29.437Z,3.16
2024-01-14T16:21:03.054Z,3.17
2024-01-14T16:23:34.099Z,3.16
2024-01-14T16:26:01.594Z,3.13
2024-01-14T16:28:28.347Z,3.11
2024-01-14T16:31:05.530Z,3.12
2024-01-14T16:33:38.855Z,3.14
2024-01-14T16:36:06.064Z,3.15
2024-01-14T16:38:32.750Z,3.17
2024-01-14T16:41:04.044Z,3.17
2024-01-14T16:43:32.895Z,3.12
2024-01-14T16:45:59.710Z,3.13
2024-01-14T16:48:26.563Z,3.08
2024-01-14T16:51:02.671Z,3.12
2024-01-14T16:53:35.827Z,3.15
2024-01-14T16:56:03.499Z,3.15
2024-01-14T16:58:30.832Z,3.16
2024-01-14T17:03:28.323Z,3.17
2024-01-14T17:05:57.208Z,3.16
2024-01-14T17:08:23.687Z,3.19
2024-01-14T17:10:58.220Z,3.21
2024-01-14T17:13:29.620Z,3.22
2024-01-14T17:16:04.883Z,3.21
2024-01-14T17:18:36.144Z,3.22
2024-01-14T17:21:02.893Z,3.21
2024-01-14T17:23:29.561Z,3.21
2024-01-14T17:26:06.690Z,3.20
2024-01-14T17:28:38.480Z,3.22
2024-01-14T17:31:05.311Z,3.22
2024-01-14T17:33:32.647Z,3.21
2024-01-14T17:36:05.081Z,3.16
2024-01-14T17:38:34.026Z,3.16
2024-01-14T17:41:01.356Z,3.16
2024-01-14T17:43:32.512Z,3.19
2024-01-14T17:46:07.067Z,3.18
2024-01-14T17:48:40.277Z,3.17
2024-01-14T17:51:09.370Z,3.13
2024-01-14T17:53:36.725Z,3.10
2024-01-14T17:56:03.867Z,3.08
2024-01-14T17:58:30.625Z,3.10
2024-01-14T18:00:58.592Z,3.09
2024-01-14T18:03:25.561Z,3.10
2024-01-14T18:05:52.681Z,3.12
2024-01-14T18:08:19.407Z,3.11
2024-01-14T18:10:46.004Z,3.10
2024-01-14T18:13:15.820Z,3.09
2024-01-14T18:15:46.909Z,3.10
2024-01-14T18:18:15.842Z,3.12
2024-01-14T18:20:45.586Z,3.13
2024-01-14T18:23:14.089Z,3.15
2024-01-14T18:25:43.253Z,3.17
2024-01-14T18:28:10.354Z,3.18
2024-01-14T18:30:37.053Z,3.19
2024-01-14T18:33:10.803Z,3.19
2024-01-14T18:35:41.163Z,3.20
2024-01-14T18:38:08.488Z,3.20
2024-01-14T18:40:35.219Z,3.20
2024-01-14T18:43:01.882Z,3.22
2024-01-14T18:45:30.759Z,3.21
2024-01-14T18:47:59.530Z,3.22
2024-01-14T18:50:27.017Z,3.23
2024-01-14T18:52:53.913Z,3.21
2024-01-14T18:55:20.736Z,3.21
2024-01-14T18:57:47.391Z,3.20
2024-01-14T19:00:14.857Z,3.21
2024-01-14T19:02:44.855Z,3.20
2024-01-14T19:05:13.414Z,3.20
2024-01-14T19:07:41.036Z,3.19
2024-01-14T19:10:09.892Z,3.17
2024-01-14T19:12:37.281Z,3.17
2024-01-14T19:15:05.186Z,3.15
2024-01-14T19:17:32.348Z,3.12
2024-01-14T19:20:00.745Z,3.11
2024-01-14T19:22:27.858Z,3.13
2024-01-14T19:24:55.169Z,3.15
2024-01-14T19:27:22.381Z,3.12
2024-01-14T19:29:49.070Z,3.12
2024-01-14T19:32:15.959Z,3.11
2024-01-14T19:34:45.578Z,3.08
2024-01-14T19:37:12.276Z,3.06
2024-01-14T19:39:42.977Z,3.05
2024-01-14T19:42:10.377Z,3.02
2024-01-14T19:44:37.253Z,3.01
2024-01-14T19:47:04.359Z,2.98
2024-01-14T19:49:31.499Z,2.98
2024-01-14T19:51:58.364Z,2.97
2024-01-14T19:54:27.958Z,2.94
2024-01-14T19:56:54.821Z,2.94
2024-01-14T19:59:22.144Z,2.97
2024-01-14T20:01:49.422Z,2.94
2024-01-14T20:04:16.122Z,2.93
2024-01-14T20:06:47.348Z,2.91
2024-01-14T20:09:22.598Z,2.90
2024-01-14T20:11:49.937Z,2.90
2024-01-14T20:14:16.488Z,2.90
2024-01-14T20:16:46.269Z,2.89
2024-01-14T20:19:13.570Z,2.88
2024-01-14T20:21:40.484Z,2.89
2024-01-14T20:24:08.066Z,2.89
2024-01-14T20:26:34.702Z,2.86
2024-01-14T20:29:01.324Z,2.89
2024-01-14T20:31:28.177Z,2.90
2024-01-14T20:33:55.174Z,2.92
2024-01-14T20:36:21.801Z,2.93
2024-01-14T20:38:48.993Z,2.94
2024-01-14T20:41:15.598Z,2.96
2024-01-14T20:43:42.219Z,2.97
2024-01-14T20:46:08.949Z,2.99
2024-01-14T20:48:35.917Z,2.99
2024-01-14T20:51:02.686Z,3.00
2024-01-14T20:53:29.322Z,3.02
2024-01-14T20:55:56.255Z,3.04
2024-01-14T20:58:23.089Z,3.03
2024-01-14T21:00:50.167Z,3.05
2024-01-14T21:03:16.923Z,3.06
2024-01-14T21:05:43.627Z,3.07
2024-01-14T21:08:10.285Z,3.08
2024-01-14T21:10:37.074Z,3.10
2024-01-14T21:13:06.265Z,3.08
2024-01-14T21:15:33.147Z,3.09
2024-01-14T21:17:59.825Z,3.10
2024-01-14T21:20:26.359Z,3.10
2024-01-14T21:22:52.970Z,3.10
2024-01-14T21:25:19.605Z,3.11
2024-01-14T21:27:46.330Z,3.12
2024-01-14T21:30:13.318Z,3.09
2024-01-14T21:32:40.010Z,3.11
2024-01-14T21:35:07.449Z,3.07
2024-01-14T21:37:33.992Z,3.07
2024-01-14T21:40:01.123Z,3.08
2024-01-14T21:42:27.777Z,3.07
2024-01-14T21:44:54.529Z,3.06
2024-01-14T21:47:21.204Z,3.05
2024-01-14T21:49:47.941Z,3.05
2024-01-14T21:52:14.640Z,3.04
2024-01-14T21:54:42.978Z,3.03
2024-01-14T21:57:10.040Z,3.02
2024-01-14T21:59:36.704Z,3.01
2024-01-14T22:02:03.434Z,3.00
2024-01-14T22:04:30.010Z,2.99
2024-01-14T22:06:56.769Z,2.97
2024-01-14T22:09:23.445Z,2.97
2024-01-14T22:11:50.334Z,2.96
2024-01-14T22:14:16.954Z,2.96
2024-01-14T22:16:43.489Z,2.95
2024-01-14T22:19:11.119Z,2.97
2024-01-14T22:21:40.157Z,2.95
2024-01-14T22:24:11.623Z,2.93
2024-01-14T22:26:38.366Z,2.93
2024-01-14T22:29:23.276Z,2.94
2024-01-14T22:31:50.304Z,2.93
2024-01-14T22:34:17.056Z,2.93
2024-01-14T22:36:43.814Z,2.93
2024-01-14T22:39:10.857Z,2.91
2024-01-14T22:41:41.237Z,2.91
2024-01-14T22:44:08.055Z,2.91
2024-01-14T22:46:34.811Z,2.91
2024-01-14T22:49:01.691Z,2.91
2024-01-14T22:51:28.470Z,2.90
2024-01-14T22:53:55.227Z,2.89
2024-01-14T22:56:21.793Z,2.87
2024-01-14T22:58:56.489Z,2.87
2024-01-14T23:01:23.270Z,2.85
2024-01-14T23:03:50.500Z,2.84
2024-01-14T23:06:17.636Z,2.82
2024-01-14T23:08:44.887Z,2.78
2024-01-14T23:11:11.462Z,2.76
2024-01-14T23:13:39.036Z,2.72
2024-01-14T23:16:06.593Z,2.71
2024-01-14T23:18:34.020Z,2.70
2024-01-14T23:21:04.136Z,2.69
2024-01-14T23:23:30.753Z,2.66
2024-01-14T23:25:57.309Z,2.65
2024-01-14T23:28:23.874Z,2.65
2024-01-14T23:30:50.616Z,2.63
2024-01-14T23:33:17.405Z,2.61
2024-01-14T23:35:44.088Z,2.59
2024-01-14T23:38:10.681Z,2.59
2024-01-14T23:40:37.208Z,2.59
2024-01-14T23:43:03.951Z,2.60
2024-01-14T23:45:30.728Z,2.61
2024-01-14T23:47:57.526Z,2.61
2024-01-14T23:50:24.821Z,2.60
2024-01-14T23:52:51.588Z,2.59
2024-01-14T23:55:18.311Z,2.56
2024-01-14T23:57:45.335Z,2.54
